createdAt,value
2022-10-17T00:00:46.633Z,89.77
2022-10-17T00:01:46.691Z,89.72
2022-10-17T00:02:46.655Z,89.61
2022-10-17T00:03:46.672Z,89.50
2022-10-17T00:04:46.581Z,89.56
2022-10-17T00:05:46.581Z,89.44
2022-10-17T00:06:46.606Z,89.59
2022-10-17T00:07:46.555Z,89.65
2022-10-17T00:08:46.592Z,89.58
2022-10-17T00:09:46.544Z,89.57
2022-10-17T00:10:46.534Z,89.45
2022-10-17T00:11:46.576Z,89.16
2022-10-17T00:12:46.523Z,89.05
2022-10-17T00:13:46.502Z,88.92
2022-10-17T00:14:46.529Z,88.49
2022-10-17T00:15:46.495Z,88.78
2022-10-17T00:16:46.514Z,89.14
2022-10-17T00:17:46.466Z,89.66
2022-10-17T00:18:46.451Z,89.91
2022-10-17T00:19:46.435Z,89.88
2022-10-17T00:20:46.440Z,89.59
2022-10-17T00:21:46.428Z,89.39
2022-10-17T00:22:46.453Z,88.84
2022-10-17T00:23:46.410Z,88.59
2022-10-17T00:24:46.395Z,88.46
2022-10-17T00:25:46.373Z,88.74
2022-10-17T00:26:46.366Z,89.33
2022-10-17T00:27:46.360Z,89.42
2022-10-17T00:28:46.479Z,89.16
2022-10-17T00:29:46.338Z,88.56
2022-10-17T00:30:46.336Z,88.10
2022-10-17T00:31:46.334Z,88.29
2022-10-17T00:32:46.355Z,88.52
2022-10-17T00:33:46.310Z,88.69
2022-10-17T00:34:46.276Z,89.18
2022-10-17T00:35:46.276Z,89.62
2022-10-17T00:36:46.272Z,89.93
2022-10-17T00:37:46.299Z,89.84
2022-10-17T00:38:46.237Z,89.50
2022-10-17T00:39:46.300Z,89.12
2022-10-17T00:40:46.274Z,89.01
2022-10-17T00:41:46.215Z,89.17
2022-10-17T00:42:46.213Z,89.38
2022-10-17T00:43:46.196Z,89.55
2022-10-17T00:44:46.232Z,89.77
2022-10-17T00:45:46.191Z,90.09
2022-10-17T00:46:46.157Z,90.30
2022-10-17T00:47:46.155Z,90.22
2022-10-17T00:48:46.146Z,90.34
2022-10-17T00:49:46.178Z,90.41
2022-10-17T00:50:46.131Z,90.17
2022-10-17T00:51:46.118Z,89.89
2022-10-17T00:52:46.100Z,89.52
2022-10-17T00:53:46.111Z,89.16
2022-10-17T00:54:46.152Z,88.79
2022-10-17T00:55:46.065Z,88.75
2022-10-17T00:56:46.080Z,88.55
2022-10-17T00:57:46.060Z,88.19
2022-10-17T00:58:46.041Z,87.94
2022-10-17T00:59:46.031Z,87.95
2022-10-17T01:00:46.075Z,87.87
2022-10-17T01:01:46.021Z,87.83
2022-10-17T01:02:46.008Z,87.96
2022-10-17T01:03:46.046Z,87.97
2022-10-17T01:04:46.134Z,88.09
2022-10-17T01:05:45.970Z,88.05
2022-10-17T01:06:45.966Z,87.93
2022-10-17T01:07:45.995Z,87.92
2022-10-17T01:08:45.943Z,87.71
2022-10-17T01:09:45.932Z,87.60
2022-10-17T01:10:45.972Z,87.58
2022-10-17T01:11:45.905Z,87.28
2022-10-17T01:12:45.942Z,87.46
2022-10-17T01:13:45.936Z,87.51
2022-10-17T01:14:45.887Z,87.52
2022-10-17T01:15:45.872Z,87.08
2022-10-17T01:16:45.877Z,87.48
2022-10-17T01:17:45.894Z,88.20
2022-10-17T01:18:45.862Z,88.45
2022-10-17T01:19:45.867Z,88.31
2022-10-17T01:20:45.825Z,88.62
2022-10-17T01:21:45.812Z,88.89
2022-10-17T01:22:45.795Z,88.94
2022-10-17T01:23:45.854Z,88.82
2022-10-17T01:24:45.785Z,89.03
2022-10-17T01:25:45.761Z,89.18
2022-10-17T01:26:45.765Z,88.98
2022-10-17T01:27:45.749Z,88.87
2022-10-17T01:28:45.756Z,88.76
2022-10-17T01:29:45.770Z,89.16
2022-10-17T01:30:45.728Z,89.19
2022-10-17T01:31:45.700Z,89.17
2022-10-17T01:32:45.706Z,89.23
2022-10-17T01:33:45.689Z,89.51
2022-10-17T01:34:45.730Z,89.53
2022-10-17T01:35:45.671Z,89.55
2022-10-17T01:36:45.653Z,89.78
2022-10-17T01:37:45.699Z,89.62
2022-10-17T01:38:45.645Z,89.56
2022-10-17T01:39:47.784Z,89.67
2022-10-17T01:40:45.667Z,89.49
2022-10-17T01:41:45.609Z,89.53
2022-10-17T01:42:45.592Z,89.66
2022-10-17T01:43:45.581Z,89.83
2022-10-17T01:44:45.583Z,89.58
2022-10-17T01:45:45.693Z,89.59
2022-10-17T01:46:45.590Z,89.57
2022-10-17T01:47:45.545Z,89.45
2022-10-17T01:48:45.541Z,89.51
2022-10-17T01:49:45.525Z,89.61
2022-10-17T01:50:45.524Z,89.65
2022-10-17T01:51:45.563Z,89.66
2022-10-17T01:52:45.553Z,89.69
2022-10-17T01:53:45.490Z,89.75
2022-10-17T01:54:45.489Z,89.67
2022-10-17T01:55:45.499Z,89.65
2022-10-17T01:56:45.459Z,89.63
2022-10-17T01:57:45.452Z,89.65
2022-10-17T01:58:45.482Z,89.68
2022-10-17T01:59:45.469Z,90.08
2022-10-17T02:00:45.421Z,90.26
2022-10-17T02:01:45.468Z,90.35
2022-10-17T02:02:45.453Z,90.09
2022-10-17T02:03:45.425Z,89.90
2022-10-17T02:04:45.371Z,89.80
2022-10-17T02:05:45.367Z,89.78
2022-10-17T02:06:45.350Z,89.82
2022-10-17T02:07:45.337Z,89.90
2022-10-17T02:08:45.387Z,90.05
2022-10-17T02:09:45.327Z,90.19
2022-10-17T02:10:45.312Z,90.19
2022-10-17T02:11:45.301Z,90.23
2022-10-17T02:12:45.310Z,90.39
2022-10-17T02:13:45.278Z,90.63
2022-10-17T02:14:45.325Z,91.01
2022-10-17T02:15:45.303Z,91.15
2022-10-17T02:16:45.247Z,91.11
2022-10-17T02:17:45.248Z,91.01
2022-10-17T02:18:45.237Z,90.79
2022-10-17T02:19:45.231Z,90.44
2022-10-17T02:20:45.208Z,89.52
2022-10-17T02:21:45.240Z,89.47
2022-10-17T02:22:45.241Z,89.59
2022-10-17T02:23:45.185Z,89.34
2022-10-17T02:24:45.189Z,88.92
2022-10-17T02:25:45.154Z,88.57
2022-10-17T02:26:45.169Z,88.63
2022-10-17T02:27:45.136Z,88.84
2022-10-17T02:28:45.240Z,89.11
2022-10-17T02:29:45.119Z,88.98
2022-10-17T02:30:45.103Z,89.05
2022-10-17T02:31:45.091Z,89.19
2022-10-17T02:32:47.991Z,89.26
2022-10-17T02:33:45.085Z,89.25
2022-10-17T02:34:45.071Z,89.06
2022-10-17T02:35:45.060Z,89.14
2022-10-17T02:36:45.046Z,89.16
2022-10-17T02:37:45.033Z,89.24
2022-10-17T02:38:45.075Z,89.23
2022-10-17T02:39:45.029Z,89.20
2022-10-17T02:40:45.007Z,89.19
2022-10-17T02:41:44.992Z,88.79
2022-10-17T02:42:45.062Z,88.70
2022-10-17T02:43:45.027Z,88.99
2022-10-17T02:44:44.963Z,89.29
2022-10-17T02:45:44.952Z,89.48
2022-10-17T02:46:44.941Z,89.56
2022-10-17T02:47:44.928Z,89.75
2022-10-17T02:48:44.952Z,90.05
2022-10-17T02:49:44.955Z,90.03
2022-10-17T02:50:44.903Z,89.64
2022-10-17T02:51:44.891Z,89.41
2022-10-17T02:52:44.881Z,89.27
2022-10-17T02:53:44.887Z,89.46
2022-10-17T02:54:44.876Z,89.66
2022-10-17T02:55:44.955Z,89.94
2022-10-17T02:56:44.841Z,90.03
2022-10-17T02:57:44.830Z,90.00
2022-10-17T02:58:44.827Z,90.07
2022-10-17T02:59:44.808Z,90.17
2022-10-17T03:00:44.848Z,90.19
2022-10-17T03:01:44.848Z,90.40
2022-10-17T03:02:44.791Z,90.23
2022-10-17T03:03:44.767Z,90.30
2022-10-17T03:04:44.807Z,90.28
2022-10-17T03:05:44.749Z,90.38
2022-10-17T03:06:44.794Z,90.54
2022-10-17T03:07:44.743Z,90.41
2022-10-17T03:08:44.784Z,90.34
2022-10-17T03:09:44.705Z,90.38
2022-10-17T03:10:44.705Z,90.24
2022-10-17T03:11:44.685Z,90.15
2022-10-17T03:12:44.680Z,89.96
2022-10-17T03:13:44.674Z,89.81
2022-10-17T03:14:44.714Z,89.44
2022-10-17T03:15:44.647Z,88.97
2022-10-17T03:16:44.645Z,88.37
2022-10-17T03:18:46.665Z,88.21
2022-10-17T03:19:44.620Z,88.30
2022-10-17T03:20:44.644Z,88.26
2022-10-17T03:21:44.584Z,88.31
2022-10-17T03:22:44.624Z,88.25
2022-10-17T03:23:44.570Z,88.31
2022-10-17T03:24:44.569Z,88.36
2022-10-17T03:25:44.550Z,88.44
2022-10-17T03:26:44.547Z,88.52
2022-10-17T03:27:44.579Z,88.58
2022-10-17T03:28:44.563Z,88.42
2022-10-17T03:29:44.508Z,88.31
2022-10-17T03:30:44.508Z,88.26
2022-10-17T03:31:44.549Z,88.39
2022-10-17T03:32:44.561Z,88.36
2022-10-17T03:33:44.481Z,88.19
2022-10-17T03:34:44.460Z,88.02
2022-10-17T03:35:44.526Z,88.13
2022-10-17T03:36:44.450Z,88.23
2022-10-17T03:37:44.469Z,88.13
2022-10-17T03:38:44.481Z,88.18
2022-10-17T03:39:44.450Z,88.13
2022-10-17T03:40:44.396Z,88.14
2022-10-17T03:41:44.400Z,88.14
2022-10-17T03:42:44.375Z,88.09
2022-10-17T03:43:44.408Z,88.16
2022-10-17T03:44:44.358Z,88.20
2022-10-17T03:45:44.342Z,88.20
2022-10-17T03:46:44.339Z,88.05
2022-10-17T03:47:44.336Z,88.04
2022-10-17T03:48:44.315Z,88.09
2022-10-17T03:49:44.358Z,88.09
2022-10-17T03:50:44.319Z,88.09
2022-10-17T03:51:44.301Z,88.05
2022-10-17T03:52:44.276Z,87.96
2022-10-17T03:53:44.271Z,87.96
2022-10-17T03:54:44.270Z,88.00
2022-10-17T03:55:44.286Z,87.99
2022-10-17T03:56:44.327Z,87.97
2022-10-17T03:57:45.631Z,87.94
2022-10-17T03:58:44.216Z,88.08
2022-10-17T03:59:44.256Z,88.11
2022-10-17T04:00:44.224Z,87.77
2022-10-17T04:01:44.238Z,87.40
2022-10-17T04:02:44.202Z,87.36
2022-10-17T04:03:44.168Z,87.71
2022-10-17T04:04:44.153Z,88.19
2022-10-17T04:05:44.146Z,88.36
2022-10-17T04:06:44.170Z,88.30
2022-10-17T04:07:44.177Z,88.03
2022-10-17T04:08:44.117Z,87.82
2022-10-17T04:09:44.103Z,87.76
2022-10-17T04:10:44.093Z,87.70
2022-10-17T04:11:44.093Z,87.70
2022-10-17T04:12:44.117Z,87.65
2022-10-17T04:13:44.063Z,87.72
2022-10-17T04:14:44.067Z,87.91
2022-10-17T04:15:44.043Z,87.94
2022-10-17T04:16:44.035Z,88.05
2022-10-17T04:17:44.077Z,88.21
2022-10-17T04:18:44.030Z,88.21
2022-10-17T04:19:44.004Z,88.20
2022-10-17T04:20:44.043Z,88.30
2022-10-17T04:21:43.982Z,88.34
2022-10-17T04:22:44.035Z,88.41
2022-10-17T04:23:44.011Z,88.58
2022-10-17T04:24:44.091Z,88.90
2022-10-17T04:25:44.000Z,89.04
2022-10-17T04:26:43.938Z,88.87
2022-10-17T04:27:43.937Z,88.69
2022-10-17T04:28:43.925Z,88.31
2022-10-17T04:29:43.956Z,87.95
2022-10-17T04:30:45.563Z,87.64
2022-10-17T04:31:43.885Z,87.76
2022-10-17T04:32:43.888Z,87.61
2022-10-17T04:33:43.869Z,87.42
2022-10-17T04:34:43.850Z,87.27
2022-10-17T04:35:43.989Z,87.44
2022-10-17T04:36:43.864Z,87.45
2022-10-17T04:37:43.861Z,87.42
2022-10-17T04:38:43.863Z,87.40
2022-10-17T04:39:43.812Z,87.47
2022-10-17T04:40:43.792Z,87.40
2022-10-17T04:41:43.778Z,87.66
2022-10-17T04:42:43.852Z,87.81
2022-10-17T04:43:46.935Z,87.89
2022-10-17T04:44:43.801Z,87.99
2022-10-17T04:45:43.791Z,87.74
2022-10-17T04:46:43.823Z,87.67
2022-10-17T04:47:43.806Z,87.58
2022-10-17T04:48:43.878Z,87.53
2022-10-17T04:49:43.780Z,87.58
2022-10-17T04:50:43.776Z,87.93
2022-10-17T04:51:43.793Z,87.93
2022-10-17T04:52:43.784Z,88.31
2022-10-17T04:53:43.780Z,88.52
2022-10-17T04:54:43.803Z,88.76
2022-10-17T04:55:43.791Z,89.09
2022-10-17T04:56:43.645Z,89.19
2022-10-17T04:57:43.627Z,89.16
2022-10-17T04:58:43.609Z,89.15
2022-10-17T04:59:43.649Z,89.13
2022-10-17T05:00:43.645Z,89.01
2022-10-17T05:01:43.580Z,88.98
2022-10-17T05:02:43.568Z,89.08
2022-10-17T05:03:43.555Z,89.13
2022-10-17T05:04:43.600Z,89.22
2022-10-17T05:05:43.547Z,89.25
2022-10-17T05:06:43.587Z,89.25
2022-10-17T05:07:43.523Z,89.28
2022-10-17T05:08:43.506Z,89.32
2022-10-17T05:09:43.544Z,89.35
2022-10-17T05:10:43.501Z,89.53
2022-10-17T05:11:43.481Z,89.69
2022-10-17T05:12:43.467Z,89.71
2022-10-17T05:13:43.405Z,89.66
2022-10-17T05:14:43.449Z,89.50
2022-10-17T05:15:43.382Z,89.50
2022-10-17T05:16:43.381Z,89.50
2022-10-17T05:17:43.423Z,89.52
2022-10-17T05:18:43.351Z,89.61
2022-10-17T05:19:43.393Z,89.60
2022-10-17T05:20:43.332Z,89.68
2022-10-17T05:21:43.341Z,89.81
2022-10-17T05:22:43.314Z,89.95
2022-10-17T05:24:04.344Z,90.22
2022-10-17T05:24:43.290Z,90.52
2022-10-17T05:25:43.285Z,90.59
2022-10-17T05:26:43.271Z,90.54
2022-10-17T05:27:43.261Z,90.43
2022-10-17T05:28:43.348Z,90.11
2022-10-17T05:29:43.292Z,90.05
2022-10-17T05:30:43.281Z,89.89
2022-10-17T05:31:43.225Z,89.96
2022-10-17T05:32:43.259Z,90.09
2022-10-17T05:33:43.249Z,90.14
2022-10-17T05:34:43.240Z,90.14
2022-10-17T05:35:43.196Z,90.09
2022-10-17T05:36:43.169Z,89.98
2022-10-17T05:37:43.213Z,89.81
2022-10-17T05:38:43.163Z,89.72
2022-10-17T05:39:43.949Z,89.58
2022-10-17T05:40:43.172Z,89.57
2022-10-17T05:41:43.121Z,89.49
2022-10-17T05:42:43.162Z,89.30
2022-10-17T05:43:43.153Z,89.21
2022-10-17T05:44:43.094Z,89.22
2022-10-17T05:45:43.099Z,89.30
2022-10-17T05:46:43.069Z,89.43
2022-10-17T05:47:43.061Z,89.53
2022-10-17T05:48:43.105Z,89.34
2022-10-17T05:49:49.769Z,89.56
2022-10-17T05:50:43.035Z,89.75
2022-10-17T05:51:43.348Z,89.78
2022-10-17T05:52:45.201Z,89.66
2022-10-17T05:53:43.003Z,89.54
2022-10-17T05:54:43.034Z,89.47
2022-10-17T05:55:43.047Z,89.48
2022-10-17T05:56:42.974Z,89.55
2022-10-17T05:57:43.005Z,89.54
2022-10-17T05:58:51.813Z,89.42
2022-10-17T05:59:42.968Z,89.47
2022-10-17T06:00:42.941Z,89.44
2022-10-17T06:01:43.044Z,89.40
2022-10-17T06:02:42.910Z,89.40
2022-10-17T06:03:43.071Z,89.35
2022-10-17T06:04:42.907Z,89.34
2022-10-17T06:05:42.879Z,89.44
2022-10-17T06:06:42.919Z,89.67
2022-10-17T06:07:42.870Z,89.86
2022-10-17T06:08:42.898Z,89.90
2022-10-17T06:09:42.907Z,89.97
2022-10-17T06:10:42.832Z,90.29
2022-10-17T06:11:42.834Z,90.49
2022-10-17T06:12:42.822Z,90.76
2022-10-17T06:13:42.851Z,90.94
2022-10-17T06:14:42.788Z,91.09
2022-10-17T06:15:42.838Z,91.20
2022-10-17T06:16:42.767Z,91.25
2022-10-17T06:17:42.773Z,90.99
2022-10-17T06:18:42.803Z,90.47
2022-10-17T06:19:42.792Z,90.05
2022-10-17T06:20:45.336Z,89.66
2022-10-17T06:21:42.767Z,89.31
2022-10-17T06:22:42.705Z,88.63
2022-10-17T06:23:42.694Z,88.58
2022-10-17T06:24:42.699Z,88.36
2022-10-17T06:25:42.734Z,87.77
2022-10-17T06:26:42.712Z,87.46
2022-10-17T06:27:42.711Z,87.42
2022-10-17T06:28:42.758Z,87.43
2022-10-17T06:29:42.638Z,87.22
2022-10-17T06:30:42.632Z,87.00
2022-10-17T06:31:42.616Z,86.94
2022-10-17T06:32:42.602Z,86.80
2022-10-17T06:33:42.611Z,86.85
2022-10-17T06:34:42.643Z,87.07
2022-10-17T06:35:42.580Z,86.79
2022-10-17T06:36:42.583Z,86.82
2022-10-17T06:37:42.566Z,86.90
2022-10-17T06:38:42.595Z,86.97
2022-10-17T06:39:42.547Z,87.09
2022-10-17T06:40:42.534Z,87.59
2022-10-17T06:41:42.533Z,87.70
2022-10-17T06:42:42.507Z,87.54
2022-10-17T06:43:42.494Z,87.66
2022-10-17T06:44:42.532Z,87.67
2022-10-17T06:45:42.497Z,87.71
2022-10-17T06:46:42.464Z,87.61
2022-10-17T06:47:42.454Z,87.49
2022-10-17T06:48:42.464Z,87.29
2022-10-17T06:49:42.481Z,87.07
2022-10-17T06:50:42.429Z,86.62
2022-10-17T06:51:42.418Z,86.53
2022-10-17T06:52:42.416Z,86.77
2022-10-17T06:53:42.439Z,86.78
2022-10-17T06:54:42.392Z,87.07
2022-10-17T06:55:42.506Z,87.18
2022-10-17T06:56:42.414Z,87.03
2022-10-17T06:57:42.373Z,86.94
2022-10-17T06:58:42.342Z,86.91
2022-10-17T06:59:42.329Z,87.07
2022-10-17T07:00:42.590Z,87.50
2022-10-17T07:01:44.675Z,88.21
2022-10-17T07:02:42.303Z,87.52
2022-10-17T07:03:42.313Z,87.40
2022-10-17T07:04:42.280Z,87.27
2022-10-17T07:05:42.270Z,87.04
2022-10-17T07:06:42.304Z,87.04
2022-10-17T07:07:44.180Z,87.23
2022-10-17T07:08:42.249Z,87.35
2022-10-17T07:09:42.276Z,87.45
2022-10-17T07:10:42.227Z,87.39
2022-10-17T07:11:42.215Z,87.35
2022-10-17T07:12:42.193Z,87.04
2022-10-17T07:13:42.351Z,87.08
2022-10-17T07:14:42.255Z,87.03
2022-10-17T07:15:42.172Z,86.67
2022-10-17T07:16:42.208Z,86.63
2022-10-17T07:17:42.176Z,86.43
2022-10-17T07:18:42.138Z,86.26
2022-10-17T07:19:42.156Z,85.80
2022-10-17T07:20:42.167Z,85.88
2022-10-17T07:21:42.153Z,85.87
2022-10-17T07:22:42.234Z,85.89
2022-10-17T07:23:42.141Z,85.95
2022-10-17T07:24:42.146Z,85.44
2022-10-17T07:25:42.072Z,85.55
2022-10-17T07:26:42.110Z,85.01
2022-10-17T07:27:42.043Z,85.12
2022-10-17T07:28:42.154Z,84.87
2022-10-17T07:29:42.027Z,84.93
2022-10-17T07:30:42.013Z,85.04
2022-10-17T07:31:42.091Z,84.95
2022-10-17T07:32:42.000Z,84.39
2022-10-17T07:33:42.038Z,84.59
2022-10-17T07:34:42.049Z,84.39
2022-10-17T07:35:42.013Z,84.50
2022-10-17T07:36:41.998Z,84.56
2022-10-17T07:37:41.981Z,84.47
2022-10-17T07:38:41.935Z,84.51
2022-10-17T07:39:41.921Z,84.67
2022-10-17T07:40:41.914Z,84.69
2022-10-17T07:41:41.965Z,84.55
2022-10-17T07:42:41.939Z,84.29
2022-10-17T07:43:41.889Z,84.41
2022-10-17T07:44:41.913Z,84.38
2022-10-17T07:45:41.863Z,84.36
2022-10-17T07:46:41.855Z,84.21
2022-10-17T07:47:41.850Z,84.08
2022-10-17T07:48:41.905Z,84.08
2022-10-17T07:49:41.824Z,84.00
2022-10-17T07:50:41.828Z,83.58
2022-10-17T07:51:41.850Z,83.66
2022-10-17T07:52:41.815Z,83.44
2022-10-17T07:53:43.919Z,83.51
2022-10-17T07:54:41.817Z,83.14
2022-10-17T07:55:41.760Z,82.87
2022-10-17T07:56:41.789Z,82.75
2022-10-17T07:57:41.739Z,82.74
2022-10-17T07:58:41.729Z,82.53
2022-10-17T07:59:41.722Z,82.29
2022-10-17T08:00:41.961Z,81.87
2022-10-17T08:01:41.941Z,81.69
2022-10-17T08:02:41.695Z,81.36
2022-10-17T08:03:41.697Z,81.01
2022-10-17T08:04:41.726Z,80.64
2022-10-17T08:05:41.670Z,80.59
2022-10-17T08:06:41.684Z,80.40
2022-10-17T08:07:41.638Z,80.08
2022-10-17T08:08:41.648Z,80.04
2022-10-17T08:09:41.685Z,79.96
2022-10-17T08:10:41.648Z,80.04
2022-10-17T08:11:41.599Z,80.04
2022-10-17T08:12:41.590Z,79.58
2022-10-17T08:13:41.599Z,79.54
2022-10-17T08:14:41.631Z,79.48
2022-10-17T08:15:41.594Z,78.84
2022-10-17T08:16:41.557Z,78.64
2022-10-17T08:17:41.629Z,79.10
2022-10-17T08:18:41.523Z,79.24
2022-10-17T08:19:41.527Z,78.75
2022-10-17T08:20:41.561Z,78.80
2022-10-17T08:21:41.549Z,78.50
2022-10-17T08:22:41.534Z,78.42
2022-10-17T08:23:41.481Z,78.30
2022-10-17T08:24:41.513Z,78.30
2022-10-17T08:25:41.462Z,78.12
2022-10-17T08:26:43.498Z,78.48
2022-10-17T08:27:41.445Z,78.27
2022-10-17T08:28:41.538Z,77.85
2022-10-17T08:29:41.453Z,77.56
2022-10-17T08:30:41.401Z,77.37
2022-10-17T08:31:41.829Z,77.18
2022-10-17T08:32:41.445Z,77.16
2022-10-17T08:33:41.385Z,76.85
2022-10-17T08:34:41.471Z,76.86
2022-10-17T08:35:41.361Z,76.94
2022-10-17T08:36:41.339Z,76.75
2022-10-17T08:37:41.505Z,77.03
2022-10-17T08:38:43.528Z,76.78
2022-10-17T08:39:41.374Z,76.70
2022-10-17T08:40:41.363Z,76.70
2022-10-17T08:41:41.313Z,76.34
2022-10-17T08:42:41.335Z,76.31
2022-10-17T08:43:41.381Z,76.75
2022-10-17T08:44:41.320Z,76.62
2022-10-17T08:45:41.266Z,76.53
2022-10-17T08:46:41.236Z,76.14
2022-10-17T08:47:41.241Z,75.47
2022-10-17T08:48:44.102Z,75.44
2022-10-17T08:49:41.259Z,74.91
2022-10-17T08:50:41.228Z,74.76
2022-10-17T08:51:41.233Z,74.94
2022-10-17T08:52:41.483Z,75.61
2022-10-17T08:53:41.177Z,76.30
2022-10-17T08:54:41.156Z,76.65
2022-10-17T08:55:44.463Z,76.47
2022-10-17T08:56:48.480Z,76.50
2022-10-17T08:57:41.184Z,76.80
2022-10-17T08:58:41.116Z,76.72
2022-10-17T08:59:41.112Z,76.86
2022-10-17T09:00:41.148Z,76.82
2022-10-17T09:01:41.148Z,76.70
2022-10-17T09:02:41.090Z,76.37
2022-10-17T09:03:41.632Z,76.62
2022-10-17T09:04:41.059Z,76.03
2022-10-17T09:05:41.115Z,76.14
2022-10-17T09:06:41.043Z,76.22
2022-10-17T09:07:41.028Z,75.60
2022-10-17T09:08:41.012Z,75.54
2022-10-17T09:09:41.049Z,75.06
2022-10-17T09:10:41.013Z,75.41
2022-10-17T09:11:41.001Z,75.23
2022-10-17T09:12:41.019Z,75.11
2022-10-17T09:13:40.972Z,75.13
2022-10-17T09:14:41.059Z,74.73
2022-10-17T09:15:40.949Z,74.57
2022-10-17T09:16:40.931Z,74.66
2022-10-17T09:17:40.976Z,74.20
2022-10-17T09:18:40.913Z,73.69
2022-10-17T09:19:40.949Z,73.46
2022-10-17T09:20:40.943Z,73.64
2022-10-17T09:21:40.894Z,73.70
2022-10-17T09:22:40.882Z,73.20
2022-10-17T09:23:42.514Z,73.29
2022-10-17T09:24:40.859Z,73.15
2022-10-17T09:25:40.897Z,73.10
2022-10-17T09:26:40.842Z,72.85
2022-10-17T09:27:40.857Z,72.85
2022-10-17T09:28:40.948Z,73.27
2022-10-17T09:29:43.866Z,73.18
2022-10-17T09:30:45.137Z,72.60
2022-10-17T09:31:40.780Z,72.35
2022-10-17T09:32:40.780Z,72.25
2022-10-17T09:33:56.001Z,72.01
2022-10-17T09:34:40.807Z,72.02
2022-10-17T09:35:40.750Z,71.79
2022-10-17T09:36:40.737Z,71.06
2022-10-17T09:37:40.724Z,71.57
2022-10-17T09:38:40.721Z,71.57
2022-10-17T09:39:40.701Z,71.93
2022-10-17T09:40:40.849Z,72.02
2022-10-17T09:41:46.070Z,72.23
2022-10-17T09:42:40.709Z,71.26
2022-10-17T09:43:40.668Z,70.96
2022-10-17T09:44:40.665Z,70.97
2022-10-17T09:45:40.638Z,70.85
2022-10-17T09:46:40.681Z,70.62
2022-10-17T09:47:40.692Z,70.34
2022-10-17T09:48:40.686Z,70.43
2022-10-17T09:49:40.665Z,70.79
2022-10-17T09:50:40.600Z,71.12
2022-10-17T09:51:40.635Z,70.95
2022-10-17T09:52:40.577Z,71.19
2022-10-17T09:53:40.569Z,70.55
2022-10-17T09:54:40.548Z,70.59
2022-10-17T09:55:40.601Z,71.09
2022-10-17T09:56:40.542Z,71.13
2022-10-17T09:57:40.522Z,70.85
2022-10-17T09:58:40.531Z,71.12
2022-10-17T09:59:40.511Z,71.42
2022-10-17T10:00:40.602Z,71.23
2022-10-17T10:01:40.482Z,71.18
2022-10-17T10:02:40.491Z,71.29
2022-10-17T10:03:40.464Z,70.83
2022-10-17T10:05:02.987Z,70.94
2022-10-17T10:05:40.499Z,70.78
2022-10-17T10:06:40.432Z,70.33
2022-10-17T10:07:40.441Z,70.25
2022-10-17T10:08:40.429Z,70.18
2022-10-17T10:09:40.526Z,69.70
2022-10-17T10:10:40.439Z,69.68
2022-10-17T10:11:40.410Z,69.78
2022-10-17T10:12:40.377Z,70.37
2022-10-17T10:13:40.360Z,70.41
2022-10-17T10:14:40.361Z,69.48
2022-10-17T10:15:40.394Z,69.26
2022-10-17T10:16:40.345Z,69.12
2022-10-17T10:17:40.328Z,69.06
2022-10-17T10:18:40.310Z,69.26
2022-10-17T10:19:40.364Z,68.88
2022-10-17T10:20:40.334Z,68.48
2022-10-17T10:21:41.429Z,68.43
2022-10-17T10:22:40.287Z,68.34
2022-10-17T10:23:40.506Z,68.19
2022-10-17T10:24:40.261Z,68.37
2022-10-17T10:25:40.283Z,68.12
2022-10-17T10:26:40.240Z,67.81
2022-10-17T10:27:40.238Z,67.89
2022-10-17T10:28:40.260Z,67.70
2022-10-17T10:29:40.213Z,67.22
2022-10-17T10:30:40.280Z,66.61
2022-10-17T10:31:40.201Z,66.66
2022-10-17T10:32:40.194Z,66.66
2022-10-17T10:33:41.716Z,66.96
2022-10-17T10:34:40.202Z,67.63
2022-10-17T10:35:40.163Z,68.19
2022-10-17T10:36:40.134Z,67.45
2022-10-17T10:37:40.121Z,67.61
2022-10-17T10:38:40.131Z,67.67
2022-10-17T10:39:40.112Z,68.25
2022-10-17T10:40:40.105Z,67.84
2022-10-17T10:41:40.088Z,67.59
2022-10-17T10:42:40.068Z,67.16
2022-10-17T10:43:40.089Z,67.32
2022-10-17T10:44:40.074Z,67.34
2022-10-17T10:45:47.917Z,67.40
2022-10-17T10:46:40.090Z,66.95
2022-10-17T10:47:40.021Z,66.39
2022-10-17T10:48:40.040Z,66.22
2022-10-17T10:49:40.017Z,66.58
2022-10-17T10:50:45.080Z,65.89
2022-10-17T10:51:39.984Z,65.78
2022-10-17T10:52:39.979Z,65.29
2022-10-17T10:53:39.967Z,65.77
2022-10-17T10:54:39.991Z,65.25
2022-10-17T10:55:39.953Z,65.13
2022-10-17T10:56:39.944Z,64.63
2022-10-17T10:57:39.918Z,64.37
2022-10-17T10:58:41.928Z,63.76
2022-10-17T10:59:39.916Z,63.66
2022-10-17T11:00:39.941Z,63.64
2022-10-17T11:01:40.050Z,63.79
2022-10-17T11:02:39.874Z,63.51
2022-10-17T11:04:39.866Z,63.70
2022-10-17T11:05:39.852Z,63.50
2022-10-17T11:06:39.856Z,63.45
2022-10-17T11:07:39.831Z,63.73
2022-10-17T11:08:39.812Z,63.07
2022-10-17T11:09:39.904Z,63.34
2022-10-17T11:10:39.826Z,63.33
2022-10-17T11:11:39.849Z,63.04
2022-10-17T11:12:39.802Z,63.06
2022-10-17T11:13:39.758Z,62.86
2022-10-17T11:14:39.761Z,62.69
2022-10-17T11:15:39.769Z,62.21
2022-10-17T11:16:39.743Z,62.43
2022-10-17T11:17:39.733Z,62.47
2022-10-17T11:18:39.719Z,62.17
2022-10-17T11:19:39.703Z,61.96
2022-10-17T11:20:39.701Z,62.35
2022-10-17T11:22:39.677Z,62.86
2022-10-17T11:23:39.690Z,62.72
2022-10-17T11:24:39.669Z,62.59
2022-10-17T11:25:39.637Z,61.75
2022-10-17T11:26:39.660Z,62.08
2022-10-17T11:27:39.622Z,61.97
2022-10-17T11:28:39.677Z,61.41
2022-10-17T11:29:39.604Z,61.36
2022-10-17T11:30:39.659Z,60.90
2022-10-17T11:31:39.592Z,61.28
2022-10-17T11:32:39.579Z,60.99
2022-10-17T11:33:39.558Z,61.02
2022-10-17T11:34:39.616Z,60.30
2022-10-17T11:35:39.540Z,59.86
2022-10-17T11:36:39.550Z,60.17
2022-10-17T11:37:40.797Z,59.98
2022-10-17T11:38:39.521Z,59.64
2022-10-17T11:39:39.590Z,59.71
2022-10-17T11:40:39.497Z,59.59
2022-10-17T11:41:39.482Z,59.60
2022-10-17T11:42:39.496Z,59.79
2022-10-17T11:43:39.657Z,59.82
2022-10-17T11:44:39.468Z,60.15
2022-10-17T11:45:39.459Z,60.31
2022-10-17T11:46:39.438Z,60.21
2022-10-17T11:47:39.421Z,60.73
2022-10-17T11:48:39.475Z,60.61
2022-10-17T11:49:41.086Z,60.91
2022-10-17T11:53:39.419Z,59.56
2022-10-17T11:54:39.403Z,58.76
2022-10-17T11:55:39.337Z,58.72
2022-10-17T11:56:42.733Z,58.57
2022-10-17T11:57:39.373Z,59.01
2022-10-17T11:58:39.314Z,59.51
2022-10-17T11:59:39.364Z,59.76
2022-10-17T12:00:41.664Z,59.16
2022-10-17T12:01:39.282Z,59.14
2022-10-17T12:02:39.291Z,58.82
2022-10-17T12:03:39.328Z,58.66
2022-10-17T12:04:39.515Z,58.30
2022-10-17T12:05:39.268Z,58.42
2022-10-17T12:06:39.243Z,58.35
2022-10-17T12:07:39.336Z,58.16
2022-10-17T12:08:39.223Z,58.51
2022-10-17T12:09:39.223Z,58.48
2022-10-17T12:10:39.201Z,57.53
2022-10-17T12:11:39.192Z,57.23
2022-10-17T12:12:39.184Z,57.70
2022-10-17T12:13:39.216Z,58.69
2022-10-17T12:14:39.168Z,57.96
2022-10-17T12:15:40.351Z,57.56
2022-10-17T12:16:39.636Z,57.90
2022-10-17T12:17:39.155Z,57.60
2022-10-17T12:18:39.158Z,56.59
2022-10-17T12:19:39.108Z,56.26
2022-10-17T12:20:39.159Z,55.58
2022-10-17T12:21:42.718Z,56.19
2022-10-17T12:22:39.077Z,56.61
2022-10-17T12:23:39.114Z,57.23
2022-10-17T12:24:39.139Z,57.43
2022-10-17T12:25:39.049Z,57.42
2022-10-17T12:26:39.042Z,56.89
2022-10-17T12:27:39.154Z,56.24
2022-10-17T12:28:39.501Z,55.41
2022-10-17T12:29:39.012Z,56.11
2022-10-17T12:30:39.011Z,55.65
2022-10-17T12:31:38.993Z,55.28
2022-10-17T12:33:00.473Z,54.99
2022-10-17T12:33:38.975Z,54.16
2022-10-17T12:34:39.036Z,54.85
2022-10-17T12:35:38.960Z,54.99
2022-10-17T12:36:38.998Z,54.89
2022-10-17T12:37:38.980Z,54.68
2022-10-17T12:38:38.981Z,54.64
2022-10-17T12:39:38.918Z,54.89
2022-10-17T12:40:38.903Z,54.56
2022-10-17T12:41:38.951Z,54.53
2022-10-17T12:42:38.937Z,54.56
2022-10-17T12:43:42.669Z,54.78
2022-10-17T12:44:38.929Z,54.51
2022-10-17T12:45:38.879Z,54.64
2022-10-17T12:46:38.854Z,53.95
2022-10-17T12:47:38.838Z,54.32
2022-10-17T12:48:38.848Z,53.33
2022-10-17T12:49:38.867Z,53.51
2022-10-17T12:50:38.810Z,54.34
2022-10-17T12:51:38.955Z,54.21
2022-10-17T12:52:38.812Z,54.29
2022-10-17T12:53:38.837Z,53.81
2022-10-17T12:54:47.240Z,53.39
2022-10-17T12:55:38.769Z,53.27
2022-10-17T12:56:38.754Z,53.25
2022-10-17T12:57:38.735Z,52.86
2022-10-17T12:58:39.153Z,53.46